createdAt,value
2018-11-26T00:01:54.917Z,16.73
2018-11-26T00:04:22.204Z,16.32
2018-11-26T00:06:49.514Z,15.78
2018-11-26T00:09:16.783Z,16.25
2018-11-26T00:11:44.886Z,15.25
2018-11-26T00:14:12.147Z,15.85
2018-11-26T00:16:39.459Z,14.68
2018-11-26T00:19:06.766Z,13.95
2018-11-26T00:21:34.075Z,14.33
2018-11-26T00:24:01.348Z,13.28
2018-11-26T00:26:28.623Z,13.18
2018-11-26T00:28:55.899Z,12.53
2018-11-26T00:31:29.741Z,12.10
2018-11-26T00:33:56.985Z,13.83
2018-11-26T00:36:24.270Z,12.73
2018-11-26T00:38:51.545Z,12.50
2018-11-26T00:41:18.820Z,12.75
2018-11-26T00:43:46.106Z,13.03
2018-11-26T00:46:13.358Z,12.65
2018-11-26T00:48:40.666Z,11.60
2018-11-26T00:51:07.951Z,12.15
2018-11-26T00:53:35.218Z,12.93
2018-11-26T00:56:02.515Z,13.15
2018-11-26T00:58:29.817Z,12.60
2018-11-26T01:00:57.136Z,11.68
2018-11-26T01:03:24.504Z,11.08
2018-11-26T01:05:51.758Z,9.98
2018-11-26T01:08:19.066Z,10.32
2018-11-26T01:10:46.381Z,11.53
2018-11-26T01:13:13.646Z,11.00
2018-11-26T01:15:40.954Z,10.45
2018-11-26T01:18:08.249Z,10.13
2018-11-26T01:20:35.584Z,9.90
2018-11-26T01:23:02.939Z,10.00
2018-11-26T01:25:30.227Z,8.18
2018-11-26T01:27:57.553Z,8.88
2018-11-26T01:30:24.817Z,10.20
2018-11-26T01:32:52.099Z,8.50
2018-11-26T01:35:19.469Z,8.90
2018-11-26T01:37:46.758Z,8.30
2018-11-26T01:40:20.019Z,8.60
2018-11-26T01:42:47.532Z,9.35
2018-11-26T01:45:14.828Z,8.43
2018-11-26T01:47:42.108Z,8.75
2018-11-26T01:50:09.373Z,9.80
2018-11-26T01:52:36.675Z,10.00
2018-11-26T01:55:04.009Z,8.45
2018-11-26T01:57:32.019Z,9.23
2018-11-26T01:59:59.302Z,8.83
2018-11-26T02:02:26.577Z,9.10
2018-11-26T02:04:53.843Z,8.28
2018-11-26T02:07:21.105Z,8.55
2018-11-26T02:09:48.388Z,7.95
2018-11-26T02:12:15.675Z,8.18
2018-11-26T02:14:42.938Z,9.20
2018-11-26T02:17:10.243Z,7.33
2018-11-26T02:19:37.564Z,9.18
2018-11-26T02:22:04.837Z,8.23
2018-11-26T02:24:32.241Z,7.58
2018-11-26T02:26:59.535Z,7.58
2018-11-26T02:29:26.836Z,7.83
2018-11-26T02:31:54.181Z,7.30
2018-11-26T02:34:21.493Z,7.40
2018-11-26T02:36:48.814Z,7.80
2018-11-26T02:39:16.082Z,7.45
2018-11-26T02:41:43.367Z,8.00
2018-11-26T02:44:10.635Z,7.58
2018-11-26T02:46:37.924Z,6.55
2018-11-26T02:49:05.278Z,8.18
2018-11-26T02:51:32.534Z,7.67
2018-11-26T02:53:59.798Z,7.20
2018-11-26T02:56:27.078Z,7.15
2018-11-26T02:58:54.352Z,7.90
2018-11-26T03:01:21.611Z,7.40
2018-11-26T03:03:48.984Z,7.67
2018-11-26T03:06:16.290Z,6.47
2018-11-26T03:08:43.570Z,6.75
2018-11-26T03:11:10.856Z,6.67
2018-11-26T03:13:38.124Z,6.25
2018-11-26T03:16:05.866Z,6.65
2018-11-26T03:18:33.160Z,6.78
2018-11-26T03:21:00.444Z,8.00
2018-11-26T03:23:27.696Z,7.50
2018-11-26T03:25:54.988Z,8.70
2018-11-26T03:28:22.252Z,9.35
2018-11-26T03:30:49.514Z,10.80
2018-11-26T03:33:16.788Z,10.80
2018-11-26T03:35:44.067Z,11.38
2018-11-26T03:38:13.431Z,10.50
2018-11-26T03:40:40.846Z,11.03
2018-11-26T03:43:08.273Z,11.00
2018-11-26T03:45:35.614Z,18.90
2018-11-26T03:48:02.876Z,12.13
2018-11-26T03:50:30.162Z,12.10
2018-11-26T03:52:57.415Z,14.00
2018-11-26T03:55:24.711Z,13.15
2018-11-26T03:57:52.071Z,13.95
2018-11-26T04:00:19.387Z,14.05
2018-11-26T04:02:46.667Z,12.98
2018-11-26T04:05:13.936Z,12.90
2018-11-26T04:07:41.256Z,14.58
2018-11-26T04:10:09.609Z,14.78
2018-11-26T04:12:36.887Z,14.38
2018-11-26T04:15:04.927Z,14.07
2018-11-26T04:17:32.234Z,14.30
2018-11-26T04:19:59.529Z,12.82
2018-11-26T04:22:26.795Z,13.30
2018-11-26T04:24:54.073Z,13.43
2018-11-26T04:27:21.318Z,14.10
2018-11-26T04:29:48.583Z,14.10
2018-11-26T04:32:15.865Z,13.58
2018-11-26T04:34:43.175Z,13.00
2018-11-26T04:37:10.435Z,13.05
2018-11-26T04:39:37.711Z,14.18
2018-11-26T04:42:05.079Z,12.93
2018-11-26T04:44:32.373Z,12.20
2018-11-26T04:46:59.641Z,13.75
2018-11-26T04:49:33.713Z,11.73
2018-11-26T04:52:00.995Z,13.50
2018-11-26T04:54:28.297Z,14.10
2018-11-26T04:56:55.614Z,12.28
2018-11-26T04:59:22.914Z,14.90
2018-11-26T05:01:50.246Z,12.80
2018-11-26T05:04:17.540Z,12.60
2018-11-26T05:06:44.807Z,14.00
2018-11-26T05:09:12.079Z,11.93
2018-11-26T05:11:39.349Z,13.65
2018-11-26T05:14:06.682Z,12.03
2018-11-26T05:16:33.959Z,12.73
2018-11-26T05:19:01.265Z,13.60
2018-11-26T05:21:28.539Z,14.23
2018-11-26T05:23:55.805Z,13.90
2018-11-26T05:26:23.098Z,12.15
2018-11-26T05:28:50.376Z,13.55
2018-11-26T05:31:17.724Z,11.70
2018-11-26T05:33:45.067Z,13.13
2018-11-26T05:36:12.366Z,13.03
2018-11-26T05:38:39.636Z,12.18
2018-11-26T05:41:06.912Z,14.50
2018-11-26T05:43:34.201Z,13.55
2018-11-26T05:46:01.526Z,14.58
2018-11-26T05:48:28.804Z,14.90
2018-11-26T05:50:56.130Z,13.95
2018-11-26T05:53:23.391Z,11.68
2018-11-26T05:55:50.667Z,13.35
2018-11-26T05:58:18.025Z,12.78
2018-11-26T06:00:45.314Z,11.00
2018-11-26T06:03:12.746Z,9.50
2018-11-26T06:05:40.082Z,8.70
2018-11-26T06:08:07.396Z,8.95
2018-11-26T06:10:34.662Z,8.35
2018-11-26T06:13:03.065Z,7.85
2018-11-26T06:15:29.244Z,8.03
2018-11-26T06:17:56.500Z,6.05
2018-11-26T06:20:23.791Z,4.00
2018-11-26T06:22:51.124Z,4.00
2018-11-26T06:25:19.945Z,4.10
2018-11-26T06:27:47.288Z,3.70
2018-11-26T06:30:15.585Z,3.30
2018-11-26T06:32:43.080Z,3.50
2018-11-26T06:35:24.984Z,4.42
2018-11-26T06:37:52.251Z,4.08
2018-11-26T06:40:19.538Z,3.40
2018-11-26T06:42:46.845Z,3.05
2018-11-26T06:45:18.190Z,2.85
2018-11-26T06:47:45.479Z,2.90
2018-11-26T06:50:13.922Z,3.50
2018-11-26T06:52:41.259Z,4.10
2018-11-26T06:55:10.263Z,4.28
2018-11-26T06:57:37.561Z,3.95
2018-11-26T07:00:09.413Z,3.65
2018-11-26T07:02:43.390Z,4.05
2018-11-26T07:05:15.921Z,4.10
2018-11-26T07:07:43.314Z,4.45
2018-11-26T07:10:11.394Z,5.15
2018-11-26T07:12:38.674Z,4.80
2018-11-26T07:15:13.044Z,4.85
2018-11-26T07:17:40.487Z,4.85
2018-11-26T07:20:11.807Z,5.00
2018-11-26T07:22:39.111Z,4.20
2018-11-26T07:25:07.799Z,6.58
2018-11-26T07:27:35.067Z,5.10
2018-11-26T07:30:02.387Z,4.50
2018-11-26T07:32:29.679Z,5.22
2018-11-26T07:34:56.956Z,7.83
2018-11-26T07:37:24.254Z,6.90
2018-11-26T07:39:51.525Z,6.62
2018-11-26T07:42:18.796Z,6.33
2018-11-26T07:44:46.075Z,10.32
2018-11-26T07:47:13.354Z,6.10
2018-11-26T07:49:40.643Z,6.50
2018-11-26T07:52:07.926Z,5.65
2018-11-26T07:54:35.200Z,6.47
2018-11-26T07:57:02.512Z,6.97
2018-11-26T07:59:29.804Z,7.42
2018-11-26T08:01:57.073Z,7.55
2018-11-26T08:04:24.415Z,7.10
2018-11-26T08:06:51.768Z,6.50
2018-11-26T08:09:19.070Z,6.60
2018-11-26T08:11:46.366Z,6.92
2018-11-26T08:14:13.670Z,6.62
2018-11-26T08:16:40.942Z,7.58
2018-11-26T08:19:08.228Z,8.63
2018-11-26T08:21:35.515Z,9.00
2018-11-26T08:24:02.798Z,8.90
2018-11-26T08:26:30.108Z,8.53
2018-11-26T08:28:57.414Z,10.20
2018-11-26T08:31:24.729Z,15.35
2018-11-26T08:33:51.999Z,21.57
2018-11-26T08:36:24.876Z,14.95
2018-11-26T08:38:57.853Z,15.03
2018-11-26T08:41:30.987Z,24.60
2018-11-26T08:44:09.345Z,20.10
2018-11-26T08:46:31.152Z,7.37
2018-11-26T08:49:06.947Z,10.53
2018-11-26T08:51:34.634Z,5.83
2018-11-26T08:54:02.021Z,8.48
2018-11-26T08:56:29.403Z,6.65
2018-11-26T08:58:56.686Z,7.03
2018-11-26T09:01:29.510Z,6.05
2018-11-26T09:03:56.851Z,6.37
2018-11-26T09:06:24.281Z,9.35
2018-11-26T09:08:51.600Z,7.30
2018-11-26T09:11:18.900Z,5.90
2018-11-26T09:13:46.200Z,6.03
2018-11-26T09:16:13.481Z,5.47
2018-11-26T09:18:40.771Z,4.65
2018-11-26T09:21:08.170Z,6.72
2018-11-26T09:23:35.623Z,5.30
2018-11-26T09:26:03.013Z,4.10
2018-11-26T09:28:30.358Z,4.50
2018-11-26T09:30:57.689Z,5.20
2018-11-26T09:33:25.006Z,5.60
2018-11-26T09:35:52.316Z,5.33
2018-11-26T09:38:19.633Z,5.65
2018-11-26T09:40:47.041Z,5.35
2018-11-26T09:43:14.367Z,5.85
2018-11-26T09:45:41.747Z,5.97
2018-11-26T09:48:09.072Z,6.00
2018-11-26T09:50:36.400Z,5.60
2018-11-26T09:53:03.896Z,5.65
2018-11-26T09:55:31.210Z,5.60
2018-11-26T09:57:58.528Z,12.82
2018-11-26T10:00:25.808Z,8.10
2018-11-26T10:02:53.127Z,12.25
2018-11-26T10:05:22.705Z,5.28
2018-11-26T10:07:50.078Z,14.85
2018-11-26T10:10:17.391Z,10.75
2018-11-26T10:12:44.964Z,12.18
2018-11-26T10:15:16.226Z,13.40
2018-11-26T10:17:43.636Z,9.48
2018-11-26T10:20:11.300Z,11.95
2018-11-26T10:22:38.720Z,10.90
2018-11-26T10:25:09.762Z,6.03
2018-11-26T10:27:37.090Z,10.08
2018-11-26T10:30:07.152Z,7.33
2018-11-26T10:32:34.482Z,6.75
2018-11-26T10:35:01.819Z,4.78
2018-11-26T10:37:29.198Z,5.40
2018-11-26T10:39:56.496Z,4.70
2018-11-26T10:42:23.882Z,4.83
2018-11-26T10:44:51.312Z,4.25
2018-11-26T10:47:18.646Z,4.35
2018-11-26T10:49:45.930Z,3.92
2018-11-26T10:52:13.253Z,5.30
2018-11-26T10:54:40.590Z,4.60
2018-11-26T10:57:10.641Z,7.53
2018-11-26T10:59:38.758Z,4.90
2018-11-26T11:02:11.720Z,4.83
2018-11-26T11:04:39.032Z,4.90
2018-11-26T11:07:06.346Z,4.50
2018-11-26T11:09:33.699Z,5.78
2018-11-26T11:12:01.028Z,7.75
2018-11-26T11:14:28.361Z,5.05
2018-11-26T11:16:55.679Z,4.70
2018-11-26T11:19:22.978Z,6.00
2018-11-26T11:21:50.275Z,6.08
2018-11-26T11:24:17.865Z,4.17
2018-11-26T11:26:45.141Z,4.83
2018-11-26T11:29:12.448Z,5.28
2018-11-26T11:31:39.768Z,5.42
2018-11-26T11:34:07.093Z,5.17
2018-11-26T11:36:34.411Z,4.80
2018-11-26T11:39:01.778Z,4.35
2018-11-26T11:41:34.101Z,3.30
2018-11-26T11:43:56.476Z,4.10
2018-11-26T11:46:23.768Z,3.67
2018-11-26T11:48:51.068Z,8.78
2018-11-26T11:51:19.109Z,4.62
2018-11-26T11:53:45.729Z,4.20
2018-11-26T11:56:13.061Z,7.50
2018-11-26T11:58:40.406Z,5.35
2018-11-26T12:01:10.649Z,5.83
2018-11-26T12:03:35.250Z,10.98
2018-11-26T12:06:02.589Z,8.18
2018-11-26T12:08:29.927Z,7.55
2018-11-26T12:10:57.264Z,6.37
2018-11-26T12:13:24.577Z,8.90
2018-11-26T12:15:52.111Z,7.12
2018-11-26T12:18:19.497Z,5.62
2018-11-26T12:20:46.819Z,5.53
2018-11-26T12:23:14.359Z,7.35
2018-11-26T12:25:41.439Z,4.87
2018-11-26T12:28:08.769Z,4.45
2018-11-26T12:30:37.860Z,8.08
2018-11-26T12:33:05.467Z,7.35
2018-11-26T12:35:33.641Z,10.45
2018-11-26T12:38:00.999Z,9.13
2018-11-26T12:40:28.333Z,7.35
2018-11-26T12:42:56.734Z,8.98
2018-11-26T12:45:27.012Z,11.93
2018-11-26T12:47:54.322Z,7.17
2018-11-26T12:50:21.684Z,6.03
2018-11-26T12:52:49.066Z,5.30
2018-11-26T12:55:17.326Z,5.33
2018-11-26T12:57:45.381Z,5.75
2018-11-26T13:00:16.534Z,5.85
2018-11-26T13:02:45.959Z,6.12
2018-11-26T13:05:14.423Z,4.95
2018-11-26T13:07:41.728Z,6.90
2018-11-26T13:10:11.275Z,7.40
2018-11-26T13:12:38.577Z,5.75
2018-11-26T13:15:11.572Z,5.90
2018-11-26T13:17:38.955Z,6.22
2018-11-26T13:20:11.504Z,7.80
2018-11-26T13:22:38.847Z,7.22
2018-11-26T13:25:09.455Z,7.30
2018-11-26T13:27:37.115Z,6.37
2018-11-26T13:30:13.437Z,6.62
2018-11-26T13:32:40.738Z,5.42
2018-11-26T13:35:10.507Z,5.92
2018-11-26T13:37:37.837Z,7.37
2018-11-26T13:40:08.724Z,6.00
2018-11-26T13:42:36.095Z,5.80
2018-11-26T13:45:03.461Z,6.25
2018-11-26T13:47:30.791Z,6.55
2018-11-26T13:49:58.118Z,6.62
2018-11-26T13:52:25.459Z,6.33
2018-11-26T13:54:52.813Z,6.40
2018-11-26T13:57:20.121Z,7.62
2018-11-26T13:59:47.453Z,11.70
2018-11-26T14:02:19.156Z,16.57
2018-11-26T14:04:46.494Z,15.13
2018-11-26T14:07:13.877Z,10.95
2018-11-26T14:09:41.237Z,9.30
2018-11-26T14:12:08.619Z,9.38
2018-11-26T14:14:35.916Z,7.92
2018-11-26T14:17:03.251Z,12.88
2018-11-26T14:19:30.649Z,7.33
2018-11-26T14:21:58.107Z,8.88
2018-11-26T14:24:25.445Z,23.52
2018-11-26T14:26:52.788Z,14.85
2018-11-26T14:29:20.080Z,12.13
2018-11-26T14:31:47.406Z,6.58
2018-11-26T14:34:14.721Z,9.08
2018-11-26T14:36:42.003Z,8.78
2018-11-26T14:39:10.176Z,8.73
2018-11-26T14:41:38.957Z,6.40
2018-11-26T14:44:06.560Z,8.25
2018-11-26T14:46:34.159Z,8.90
2018-11-26T14:49:01.597Z,7.03
2018-11-26T14:51:28.955Z,8.15
2018-11-26T14:53:56.279Z,10.70
2018-11-26T14:56:23.597Z,9.08
2018-11-26T14:58:51.104Z,7.15
2018-11-26T15:01:18.795Z,7.90
2018-11-26T15:03:46.132Z,7.05
2018-11-26T15:06:16.379Z,6.03
2018-11-26T15:08:43.727Z,6.85
2018-11-26T15:11:11.272Z,7.67
2018-11-26T15:13:38.718Z,6.72
2018-11-26T15:16:06.065Z,8.55
2018-11-26T15:18:33.413Z,12.35
2018-11-26T15:21:00.748Z,11.57
2018-11-26T15:23:28.175Z,9.00
2018-11-26T15:25:55.628Z,6.85
2018-11-26T15:28:22.951Z,6.33
2018-11-26T15:30:50.313Z,4.97
2018-11-26T15:33:17.707Z,6.90
2018-11-26T15:35:45.049Z,6.45
2018-11-26T15:38:12.411Z,5.87
2018-11-26T15:40:39.793Z,6.53
2018-11-26T15:43:07.358Z,6.62
2018-11-26T15:45:35.223Z,6.97
2018-11-26T15:48:05.202Z,13.03
2018-11-26T15:50:32.715Z,22.98
2018-11-26T15:53:06.646Z,45.10
2018-11-26T15:55:34.007Z,15.80
2018-11-26T15:58:01.415Z,14.53
2018-11-26T16:00:28.733Z,12.58
2018-11-26T16:02:56.072Z,11.80
2018-11-26T16:05:26.536Z,11.60
2018-11-26T16:07:56.010Z,10.98
2018-11-26T16:10:25.794Z,9.73
2018-11-26T16:12:54.630Z,10.00
2018-11-26T16:15:23.477Z,7.12
2018-11-26T16:17:51.228Z,6.90
2018-11-26T16:20:21.985Z,6.25
2018-11-26T16:22:49.417Z,7.25
2018-11-26T16:25:18.383Z,8.55
2018-11-26T16:27:45.771Z,13.32
2018-11-26T16:30:14.335Z,12.23
2018-11-26T16:32:43.006Z,8.30
2018-11-26T16:35:13.634Z,7.50
2018-11-26T16:37:41.015Z,7.22
2018-11-26T16:40:11.953Z,6.80
2018-11-26T16:42:39.466Z,6.55
2018-11-26T16:45:12.770Z,5.70
2018-11-26T16:47:40.270Z,6.08
2018-11-26T16:50:10.210Z,16.23
2018-11-26T16:52:37.743Z,8.95
2018-11-26T16:55:07.598Z,6.95
2018-11-26T16:57:35.062Z,9.00
2018-11-26T17:00:02.576Z,7.70
2018-11-26T17:02:29.953Z,9.33
2018-11-26T17:04:57.342Z,10.63
2018-11-26T17:07:24.772Z,13.60
2018-11-26T17:09:52.229Z,15.20
2018-11-26T17:12:19.634Z,15.00
2018-11-26T17:14:47.070Z,11.15
2018-11-26T17:17:14.609Z,7.97
2018-11-26T17:19:45.679Z,10.85
2018-11-26T17:22:10.331Z,9.60
2018-11-26T17:24:37.899Z,12.37
2018-11-26T17:27:05.531Z,11.22
2018-11-26T17:29:32.923Z,9.25
2018-11-26T17:32:07.462Z,11.05
2018-11-26T17:34:34.840Z,8.48
2018-11-26T17:37:02.239Z,8.90
2018-11-26T17:39:29.704Z,10.23
2018-11-26T17:41:57.084Z,8.00
2018-11-26T17:44:24.448Z,8.85
2018-11-26T17:46:52.511Z,8.80
2018-11-26T17:49:19.907Z,8.25
2018-11-26T17:51:47.409Z,7.75
2018-11-26T17:54:14.830Z,7.17
2018-11-26T17:56:42.232Z,8.43
2018-11-26T17:59:09.672Z,6.83
2018-11-26T18:01:40.075Z,8.90
2018-11-26T18:04:08.654Z,7.95
2018-11-26T18:06:36.058Z,9.05
2018-11-26T18:09:04.122Z,9.38
2018-11-26T18:11:32.097Z,8.40
2018-11-26T18:13:59.499Z,9.00
2018-11-26T18:16:27.079Z,8.28
2018-11-26T18:18:54.601Z,8.13
2018-11-26T18:21:22.054Z,8.65
2018-11-26T18:23:49.432Z,9.95
2018-11-26T18:26:16.899Z,8.05
2018-11-26T18:28:44.329Z,8.98
2018-11-26T18:31:11.747Z,8.98
2018-11-26T18:33:39.207Z,9.38
2018-11-26T18:36:07.062Z,14.58
2018-11-26T18:38:34.554Z,9.48
2018-11-26T18:41:01.980Z,9.05
2018-11-26T18:43:30.292Z,9.25
2018-11-26T18:45:57.757Z,10.10
2018-11-26T18:48:26.292Z,10.03
2018-11-26T18:50:53.875Z,9.45
2018-11-26T18:53:21.337Z,10.10
2018-11-26T18:55:48.878Z,10.40
2018-11-26T18:58:17.107Z,11.10
2018-11-26T19:00:46.955Z,9.15
2018-11-26T19:03:18.968Z,9.58
2018-11-26T19:05:47.170Z,8.80
2018-11-26T19:08:14.605Z,9.43
2018-11-26T19:10:42.681Z,9.05
2018-11-26T19:13:14.549Z,8.93
2018-11-26T19:15:43.673Z,8.90
2018-11-26T19:18:17.733Z,9.65
2018-11-26T19:20:45.153Z,8.65
2018-11-26T19:23:12.914Z,8.70
2018-11-26T19:25:40.295Z,8.83
2018-11-26T19:28:07.958Z,9.58
2018-11-26T19:30:35.605Z,8.60
2018-11-26T19:33:03.219Z,8.25
2018-11-26T19:35:30.920Z,7.62
2018-11-26T19:37:58.541Z,8.70
2018-11-26T19:40:26.647Z,7.42
2018-11-26T19:42:55.139Z,8.88
2018-11-26T19:45:22.655Z,7.20
2018-11-26T19:47:51.803Z,6.95
2018-11-26T19:50:19.833Z,7.45
2018-11-26T19:52:49.630Z,7.78
2018-11-26T19:55:19.401Z,8.90
2018-11-26T19:57:47.196Z,9.13
2018-11-26T20:00:20.513Z,8.55
2018-11-26T20:02:50.084Z,7.37
2018-11-26T20:05:27.567Z,9.40
2018-11-26T20:07:55.084Z,9.30
2018-11-26T20:10:22.702Z,8.53
2018-11-26T20:12:50.854Z,8.60
2018-11-26T20:15:18.565Z,9.50
2018-11-26T20:17:46.295Z,8.15
2018-11-26T20:20:14.127Z,7.83
2018-11-26T20:22:42.689Z,8.15
2018-11-26T20:25:11.845Z,8.60
2018-11-26T20:27:39.491Z,6.65
2018-11-26T20:30:09.936Z,7.35
2018-11-26T20:32:37.328Z,7.55
2018-11-26T20:35:06.211Z,8.18
2018-11-26T20:37:33.611Z,10.20
2018-11-26T20:40:01.031Z,9.33
2018-11-26T20:42:28.985Z,8.45
2018-11-26T20:44:56.402Z,10.05
2018-11-26T20:47:24.405Z,8.45
2018-11-26T20:49:51.856Z,9.65
2018-11-26T20:52:19.281Z,8.83
2018-11-26T20:54:46.688Z,9.35
2018-11-26T20:57:14.823Z,9.40
2018-11-26T20:59:42.227Z,9.95
2018-11-26T21:02:09.656Z,9.93
2018-11-26T21:04:37.530Z,11.63
2018-11-26T21:07:05.498Z,10.15
2018-11-26T21:09:33.028Z,10.55
2018-11-26T21:12:00.442Z,9.85
2018-11-26T21:14:27.869Z,8.15
2018-11-26T21:16:56.012Z,7.55
2018-11-26T21:19:23.471Z,8.43
2018-11-26T21:21:50.875Z,8.33
2018-11-26T21:24:21.081Z,7.55
2018-11-26T21:26:48.661Z,6.72
2018-11-26T21:29:16.100Z,8.23
2018-11-26T21:31:43.588Z,10.60
2018-11-26T21:34:11.179Z,11.50
2018-11-26T21:36:38.590Z,8.13
2018-11-26T21:39:08.979Z,7.53
2018-11-26T21:41:36.540Z,7.92
2018-11-26T21:44:04.131Z,7.45
2018-11-26T21:46:31.535Z,7.75
2018-11-26T21:48:58.946Z,7.45
2018-11-26T21:51:26.375Z,7.62
2018-11-26T21:53:53.816Z,9.65
2018-11-26T21:56:21.217Z,7.33
2018-11-26T21:58:48.656Z,8.78
2018-11-26T22:01:16.169Z,8.28
2018-11-26T22:03:43.536Z,9.03
2018-11-26T22:06:10.917Z,8.80
2018-11-26T22:08:38.286Z,9.35
2018-11-26T22:11:05.718Z,8.90
2018-11-26T22:13:33.168Z,8.93
2018-11-26T22:18:34.690Z,10.28
2018-11-26T22:21:02.092Z,9.95
2018-11-26T22:23:29.457Z,11.05
2018-11-26T22:25:56.817Z,10.68
2018-11-26T22:28:24.183Z,10.08
2018-11-26T22:30:51.551Z,13.28
2018-11-26T22:33:18.949Z,11.70
2018-11-26T22:35:46.333Z,11.08
2018-11-26T22:38:13.817Z,9.60
2018-11-26T22:40:41.682Z,10.65
2018-11-26T22:43:09.523Z,10.75
2018-11-26T22:45:36.932Z,10.35
2018-11-26T22:48:09.048Z,10.85
2018-11-26T22:50:37.405Z,10.20
2018-11-26T22:53:05.689Z,10.08
2018-11-26T22:55:32.992Z,10.40
2018-11-26T22:58:00.309Z,9.73
2018-11-26T23:00:34.685Z,10.82
2018-11-26T23:03:02.008Z,9.65
2018-11-26T23:05:29.336Z,11.10
2018-11-26T23:07:56.684Z,11.10
2018-11-26T23:10:24.019Z,12.73
2018-11-26T23:12:51.326Z,11.10
2018-11-26T23:15:18.841Z,14.00
2018-11-26T23:17:46.662Z,11.18
2018-11-26T23:20:14.911Z,10.80
2018-11-26T23:22:42.280Z,10.63
2018-11-26T23:25:10.689Z,9.80
2018-11-26T23:27:38.412Z,9.08
2018-11-26T23:30:11.495Z,11.83
2018-11-26T23:32:39.000Z,10.65
2018-11-26T23:35:06.348Z,10.28
2018-11-26T23:37:33.649Z,10.30
2018-11-26T23:40:00.963Z,10.82
2018-11-26T23:42:28.292Z,10.18
2018-11-26T23:44:55.620Z,9.80
2018-11-26T23:47:22.916Z,8.35
2018-11-26T23:52:24.560Z,10.63
2018-11-26T23:54:51.864Z,9.13
2018-11-26T23:57:19.197Z,8.33
2018-11-26T23:59:46.827Z,8.20
